Durham, Missouri
Current Conditions -  °F | °C
As of 2:55 PM on Friday 31 Oct 2014 (Local Time) from KHAE Reporting Station
Clear Clear  
Wind Chill: 38°   Ceiling: Unl
Heat Index: 45°   Visibility: 10mi
Dew Point: 14°   Wind: 15mph
Humidity: 29%   Direction: 340°NNW
Pressure: 30.36"   Gusts: 28mph
Location:  39.98°N, 91.67°W
Report Text: KHAE 311955Z AUTO 34013G24KT 10SM CLR 07/M10 A3036 RMK AO2
Loading
Personal Weather Stations






























Interactive Weather Map
Tropical Storm Tracking
New forecast layout! Learn more

10-Day Weather Forecast

Advertisements
Track Severe Weather on mobile